sensor_id;sensor_type;location;lat;lon;timestamp;temperature;humidity
38938;DHT22;24727;51.974;20.868;2023-04-10T00:02:23;8.10;93.50
38938;DHT22;24727;51.974;20.868;2023-04-10T00:04:49;8.10;94.50
38938;DHT22;24727;51.974;20.868;2023-04-10T00:07:15;8.10;95.30
38938;DHT22;24727;51.974;20.868;2023-04-10T00:09:42;8.00;95.80
38938;DHT22;24727;51.974;20.868;2023-04-10T00:12:08;8.00;96.40
38938;DHT22;24727;51.974;20.868;2023-04-10T00:14:36;8.00;96.90
38938;DHT22;24727;51.974;20.868;2023-04-10T00:17:03;8.00;97.50
38938;DHT22;24727;51.974;20.868;2023-04-10T00:19:29;8.00;97.80
38938;DHT22;24727;51.974;20.868;2023-04-10T00:21:57;8.00;97.50
38938;DHT22;24727;51.974;20.868;2023-04-10T00:24:24;8.00;95.90
38938;DHT22;24727;51.974;20.868;2023-04-10T00:26:50;7.90;91.80
38938;DHT22;24727;51.974;20.868;2023-04-10T00:29:17;8.00;90.20
38938;DHT22;24727;51.974;20.868;2023-04-10T00:31:43;8.00;90.20
38938;DHT22;24727;51.974;20.868;2023-04-10T00:34:11;8.00;77.10
38938;DHT22;24727;51.974;20.868;2023-04-10T00:36:38;8.00;73.20
38938;DHT22;24727;51.974;20.868;2023-04-10T00:39:04;8.10;1.00
38938;DHT22;24727;51.974;20.868;2023-04-10T00:41:31;8.30;1.00
38938;DHT22;24727;51.974;20.868;2023-04-10T00:43:58;8.40;1.00
38938;DHT22;24727;51.974;20.868;2023-04-10T00:46:26;8.50;1.00
38938;DHT22;24727;51.974;20.868;2023-04-10T00:48:54;8.50;1.00
38938;DHT22;24727;51.974;20.868;2023-04-10T00:51:20;8.60;1.00
38938;DHT22;24727;51.974;20.868;2023-04-10T00:53:50;8.60;1.00
38938;DHT22;24727;51.974;20.868;2023-04-10T00:56:17;8.60;1.00
38938;DHT22;24727;51.974;20.868;2023-04-10T00:58:44;8.40;1.00
38938;DHT22;24727;51.974;20.868;2023-04-10T01:01:10;8.40;1.00
38938;DHT22;24727;51.974;20.868;2023-04-10T01:03:38;8.40;1.00
38938;DHT22;24727;51.974;20.868;2023-04-10T01:06:26;8.30;1.00
38938;DHT22;24727;51.974;20.868;2023-04-10T01:14:45;7.90;1.00
38938;DHT22;24727;51.974;20.868;2023-04-10T01:31:15;7.60;1.00
38938;DHT22;24727;51.974;20.868;2023-04-10T01:33:50;7.70;1.00
38938;DHT22;24727;51.974;20.868;2023-04-10T01:36:24;7.70;1.00
38938;DHT22;24727;51.974;20.868;2023-04-10T01:38:53;7.70;1.00
38938;DHT22;24727;51.974;20.868;2023-04-10T01:41:22;7.70;1.00
38938;DHT22;24727;51.974;20.868;2023-04-10T01:43:50;7.90;1.00
38938;DHT22;24727;51.974;20.868;2023-04-10T01:46:18;8.00;1.00
38938;DHT22;24727;51.974;20.868;2023-04-10T01:48:45;8.20;1.00
38938;DHT22;24727;51.974;20.868;2023-04-10T01:51:12;8.20;1.00
38938;DHT22;24727;51.974;20.868;2023-04-10T01:53:39;8.10;1.00
38938;DHT22;24727;51.974;20.868;2023-04-10T01:56:08;8.00;1.00
38938;DHT22;24727;51.974;20.868;2023-04-10T01:58:35;8.10;1.00
38938;DHT22;24727;51.974;20.868;2023-04-10T02:01:01;8.20;1.00
38938;DHT22;24727;51.974;20.868;2023-04-10T02:03:28;8.20;1.00
38938;DHT22;24727;51.974;20.868;2023-04-10T02:09:02;8.00;1.00
38938;DHT22;24727;51.974;20.868;2023-04-10T02:11:54;7.70;1.00
38938;DHT22;24727;51.974;20.868;2023-04-10T02:14:25;7.50;1.00
38938;DHT22;24727;51.974;20.868;2023-04-10T02:16:55;7.50;1.00
38938;DHT22;24727;51.974;20.868;2023-04-10T02:19:26;7.50;1.00
38938;DHT22;24727;51.974;20.868;2023-04-10T02:21:53;7.40;1.00
38938;DHT22;24727;51.974;20.868;2023-04-10T02:24:21;7.40;1.00
38938;DHT22;24727;51.974;20.868;2023-04-10T02:26:54;7.50;1.00
38938;DHT22;24727;51.974;20.868;2023-04-10T02:29:20;7.40;1.00
38938;DHT22;24727;51.974;20.868;2023-04-10T02:31:46;7.40;1.00
38938;DHT22;24727;51.974;20.868;2023-04-10T02:34:12;7.40;1.00
38938;DHT22;24727;51.974;20.868;2023-04-10T02:36:39;7.40;1.00
38938;DHT22;24727;51.974;20.868;2023-04-10T02:39:06;7.40;1.00
38938;DHT22;24727;51.974;20.868;2023-04-10T02:41:33;7.30;1.00
38938;DHT22;24727;51.974;20.868;2023-04-10T02:43:59;7.10;1.00
38938;DHT22;24727;51.974;20.868;2023-04-10T02:46:25;7.00;1.00
38938;DHT22;24727;51.974;20.868;2023-04-10T02:48:52;7.00;1.00
38938;DHT22;24727;51.974;20.868;2023-04-10T02:51:18;6.90;1.00
38938;DHT22;24727;51.974;20.868;2023-04-10T02:53:44;6.90;1.00
38938;DHT22;24727;51.974;20.868;2023-04-10T02:56:12;6.80;1.00
38938;DHT22;24727;51.974;20.868;2023-04-10T02:58:38;6.80;1.00
38938;DHT22;24727;51.974;20.868;2023-04-10T03:01:05;6.80;1.00
38938;DHT22;24727;51.974;20.868;2023-04-10T03:03:32;6.60;1.00
38938;DHT22;24727;51.974;20.868;2023-04-10T03:05:58;6.70;1.00
38938;DHT22;24727;51.974;20.868;2023-04-10T03:08:30;6.60;1.00
38938;DHT22;24727;51.974;20.868;2023-04-10T03:10:56;6.40;1.00
38938;DHT22;24727;51.974;20.868;2023-04-10T03:13:21;6.30;1.00
38938;DHT22;24727;51.974;20.868;2023-04-10T03:15:51;6.30;1.00
38938;DHT22;24727;51.974;20.868;2023-04-10T03:18:17;6.20;1.00
38938;DHT22;24727;51.974;20.868;2023-04-10T03:20:42;6.20;1.00
38938;DHT22;24727;51.974;20.868;2023-04-10T03:23:09;6.10;1.00
38938;DHT22;24727;51.974;20.868;2023-04-10T03:25:35;6.00;1.00
38938;DHT22;24727;51.974;20.868;2023-04-10T03:28:01;5.90;1.00
38938;DHT22;24727;51.974;20.868;2023-04-10T03:30:28;5.90;1.00
38938;DHT22;24727;51.974;20.868;2023-04-10T03:32:56;5.90;1.00
38938;DHT22;24727;51.974;20.868;2023-04-10T03:35:24;6.00;1.00
38938;DHT22;24727;51.974;20.868;2023-04-10T03:37:50;6.20;1.00
38938;DHT22;24727;51.974;20.868;2023-04-10T03:40:16;6.20;1.00
38938;DHT22;24727;51.974;20.868;2023-04-10T03:42:42;6.30;1.00
38938;DHT22;24727;51.974;20.868;2023-04-10T03:45:09;6.40;1.00
38938;DHT22;24727;51.974;20.868;2023-04-10T03:47:35;6.50;1.00
38938;DHT22;24727;51.974;20.868;2023-04-10T03:50:01;6.30;1.00
38938;DHT22;24727;51.974;20.868;2023-04-10T03:52:28;6.30;1.00
38938;DHT22;24727;51.974;20.868;2023-04-10T03:54:54;6.40;1.00
38938;DHT22;24727;51.974;20.868;2023-04-10T03:57:20;6.30;1.00
38938;DHT22;24727;51.974;20.868;2023-04-10T03:59:47;6.20;1.00
38938;DHT22;24727;51.974;20.868;2023-04-10T04:02:13;6.10;1.00
38938;DHT22;24727;51.974;20.868;2023-04-10T04:04:39;6.00;1.00
38938;DHT22;24727;51.974;20.868;2023-04-10T04:07:06;5.90;1.00
38938;DHT22;24727;51.974;20.868;2023-04-10T04:09:32;5.80;1.00
38938;DHT22;24727;51.974;20.868;2023-04-10T04:11:59;5.70;1.00
38938;DHT22;24727;51.974;20.868;2023-04-10T04:14:26;5.60;16.00
38938;DHT22;24727;51.974;20.868;2023-04-10T04:16:52;5.60;34.60
38938;DHT22;24727;51.974;20.868;2023-04-10T04:19:18;5.50;50.60
38938;DHT22;24727;51.974;20.868;2023-04-10T04:21:45;5.50;62.70
38938;DHT22;24727;51.974;20.868;2023-04-10T04:24:11;5.40;75.10
38938;DHT22;24727;51.974;20.868;2023-04-10T04:26:37;5.40;85.10
38938;DHT22;24727;51.974;20.868;2023-04-10T04:29:02;5.30;90.00
38938;DHT22;24727;51.974;20.868;2023-04-10T04:31:28;5.30;92.00
38938;DHT22;24727;51.974;20.868;2023-04-10T04:34:00;5.20;93.20
38938;DHT22;24727;51.974;20.868;2023-04-10T04:36:26;5.20;94.30
38938;DHT22;24727;51.974;20.868;2023-04-10T04:38:53;5.20;95.10
38938;DHT22;24727;51.974;20.868;2023-04-10T04:41:19;5.10;95.80
38938;DHT22;24727;51.974;20.868;2023-04-10T04:43:47;5.10;96.40
38938;DHT22;24727;51.974;20.868;2023-04-10T04:46:16;5.20;96.90
38938;DHT22;24727;51.974;20.868;2023-04-10T04:48:42;5.20;97.40
38938;DHT22;24727;51.974;20.868;2023-04-10T04:51:08;5.20;97.80
38938;DHT22;24727;51.974;20.868;2023-04-10T04:53:34;5.30;98.20
38938;DHT22;24727;51.974;20.868;2023-04-10T04:56:01;5.30;98.50
38938;DHT22;24727;51.974;20.868;2023-04-10T04:58:27;5.40;98.90
38938;DHT22;24727;51.974;20.868;2023-04-10T05:00:54;5.50;99.50
38938;DHT22;24727;51.974;20.868;2023-04-10T05:03:20;5.60;99.80
38938;DHT22;24727;51.974;20.868;2023-04-10T05:05:47;5.80;99.90
38938;DHT22;24727;51.974;20.868;2023-04-10T05:08:12;6.00;99.90
38938;DHT22;24727;51.974;20.868;2023-04-10T05:10:38;6.10;99.90
38938;DHT22;24727;51.974;20.868;2023-04-10T05:13:04;6.30;99.90
38938;DHT22;24727;51.974;20.868;2023-04-10T05:15:31;6.40;99.90
38938;DHT22;24727;51.974;20.868;2023-04-10T05:17:57;6.50;99.90
38938;DHT22;24727;51.974;20.868;2023-04-10T05:20:23;6.60;99.90
38938;DHT22;24727;51.974;20.868;2023-04-10T05:22:49;6.70;99.90
38938;DHT22;24727;51.974;20.868;2023-04-10T05:25:18;6.80;99.90
38938;DHT22;24727;51.974;20.868;2023-04-10T05:27:45;6.90;99.90
38938;DHT22;24727;51.974;20.868;2023-04-10T05:30:11;7.00;99.90
38938;DHT22;24727;51.974;20.868;2023-04-10T05:32:38;7.20;99.90
38938;DHT22;24727;51.974;20.868;2023-04-10T05:35:05;7.30;99.90
38938;DHT22;24727;51.974;20.868;2023-04-10T05:37:33;7.50;99.90
38938;DHT22;24727;51.974;20.868;2023-04-10T05:39:59;7.60;99.90
38938;DHT22;24727;51.974;20.868;2023-04-10T05:42:26;7.80;99.90
38938;DHT22;24727;51.974;20.868;2023-04-10T05:44:52;7.80;99.90
38938;DHT22;24727;51.974;20.868;2023-04-10T05:47:18;8.00;99.90
38938;DHT22;24727;51.974;20.868;2023-04-10T05:49:44;8.10;99.90
38938;DHT22;24727;51.974;20.868;2023-04-10T05:52:12;8.20;99.90
38938;DHT22;24727;51.974;20.868;2023-04-10T05:54:38;8.20;99.90
38938;DHT22;24727;51.974;20.868;2023-04-10T05:57:05;8.30;99.90
38938;DHT22;24727;51.974;20.868;2023-04-10T05:59:31;8.50;99.90
38938;DHT22;24727;51.974;20.868;2023-04-10T06:01:58;8.60;99.90
38938;DHT22;24727;51.974;20.868;2023-04-10T06:04:24;8.80;99.40
38938;DHT22;24727;51.974;20.868;2023-04-10T06:06:50;9.10;99.50
38938;DHT22;24727;51.974;20.868;2023-04-10T06:09:16;9.20;94.60
38938;DHT22;24727;51.974;20.868;2023-04-10T06:11:43;9.40;88.00
38938;DHT22;24727;51.974;20.868;2023-04-10T06:14:09;9.50;60.60
38938;DHT22;24727;51.974;20.868;2023-04-10T06:16:35;9.70;56.30
38938;DHT22;24727;51.974;20.868;2023-04-10T06:19:01;9.60;65.20
38938;DHT22;24727;51.974;20.868;2023-04-10T06:21:29;9.50;78.70
38938;DHT22;24727;51.974;20.868;2023-04-10T06:23:55;9.40;79.60
38938;DHT22;24727;51.974;20.868;2023-04-10T06:26:23;9.40;81.10
38938;DHT22;24727;51.974;20.868;2023-04-10T06:28:49;9.30;82.00
38938;DHT22;24727;51.974;20.868;2023-04-10T06:31:18;9.20;80.40
38938;DHT22;24727;51.974;20.868;2023-04-10T06:33:44;9.30;82.20
38938;DHT22;24727;51.974;20.868;2023-04-10T06:36:11;9.30;80.30
38938;DHT22;24727;51.974;20.868;2023-04-10T06:38:38;9.60;81.20
38938;DHT22;24727;51.974;20.868;2023-04-10T06:41:05;9.90;57.30
38938;DHT22;24727;51.974;20.868;2023-04-10T06:43:35;10.30;1.00
38938;DHT22;24727;51.974;20.868;2023-04-10T06:46:04;10.60;1.00
38938;DHT22;24727;51.974;20.868;2023-04-10T06:48:31;10.90;1.00
38938;DHT22;24727;51.974;20.868;2023-04-10T06:50:57;11.20;1.00
38938;DHT22;24727;51.974;20.868;2023-04-10T06:53:25;11.40;1.00
38938;DHT22;24727;51.974;20.868;2023-04-10T06:55:52;10.80;1.00
38938;DHT22;24727;51.974;20.868;2023-04-10T06:58:19;10.80;1.00
38938;DHT22;24727;51.974;20.868;2023-04-10T07:00:46;11.00;1.00
38938;DHT22;24727;51.974;20.868;2023-04-10T07:03:12;11.10;1.00
38938;DHT22;24727;51.974;20.868;2023-04-10T07:05:38;11.50;1.00
38938;DHT22;24727;51.974;20.868;2023-04-10T07:08:05;11.70;1.00
38938;DHT22;24727;51.974;20.868;2023-04-10T07:10:32;12.10;1.00
38938;DHT22;24727;51.974;20.868;2023-04-10T07:12:58;12.10;1.00
38938;DHT22;24727;51.974;20.868;2023-04-10T07:15:24;12.30;1.00
38938;DHT22;24727;51.974;20.868;2023-04-10T07:17:51;12.70;1.00
38938;DHT22;24727;51.974;20.868;2023-04-10T07:20:17;13.10;1.00
38938;DHT22;24727;51.974;20.868;2023-04-10T07:22:43;12.50;1.00
38938;DHT22;24727;51.974;20.868;2023-04-10T07:25:10;11.80;1.00
38938;DHT22;24727;51.974;20.868;2023-04-10T07:27:36;11.40;1.00
38938;DHT22;24727;51.974;20.868;2023-04-10T07:30:02;11.50;1.00
38938;DHT22;24727;51.974;20.868;2023-04-10T07:32:28;11.70;1.00
38938;DHT22;24727;51.974;20.868;2023-04-10T07:34:54;12.10;1.00
38938;DHT22;24727;51.974;20.868;2023-04-10T07:37:21;12.70;1.00
38938;DHT22;24727;51.974;20.868;2023-04-10T07:39:47;13.20;1.00
38938;DHT22;24727;51.974;20.868;2023-04-10T07:42:13;13.30;1.00
38938;DHT22;24727;51.974;20.868;2023-04-10T07:44:40;13.50;1.00
38938;DHT22;24727;51.974;20.868;2023-04-10T07:47:07;13.50;1.00
38938;DHT22;24727;51.974;20.868;2023-04-10T07:49:33;13.30;1.00
38938;DHT22;24727;51.974;20.868;2023-04-10T07:51:59;13.20;1.00
38938;DHT22;24727;51.974;20.868;2023-04-10T07:54:26;13.60;1.00
38938;DHT22;24727;51.974;20.868;2023-04-10T07:56:52;14.20;1.00
38938;DHT22;24727;51.974;20.868;2023-04-10T07:59:18;14.00;1.00
38938;DHT22;24727;51.974;20.868;2023-04-10T08:01:46;14.40;1.00
38938;DHT22;24727;51.974;20.868;2023-04-10T08:04:12;14.50;1.00
38938;DHT22;24727;51.974;20.868;2023-04-10T08:06:38;14.70;1.00
38938;DHT22;24727;51.974;20.868;2023-04-10T08:09:05;14.70;1.00
38938;DHT22;24727;51.974;20.868;2023-04-10T08:11:33;14.40;1.00
38938;DHT22;24727;51.974;20.868;2023-04-10T08:14:01;14.90;1.00
38938;DHT22;24727;51.974;20.868;2023-04-10T08:16:32;15.60;1.00
38938;DHT22;24727;51.974;20.868;2023-04-10T08:18:59;16.20;1.00
38938;DHT22;24727;51.974;20.868;2023-04-10T08:21:27;16.50;1.00
38938;DHT22;24727;51.974;20.868;2023-04-10T08:23:57;16.30;1.00
38938;DHT22;24727;51.974;20.868;2023-04-10T08:26:24;15.70;1.00
38938;DHT22;24727;51.974;20.868;2023-04-10T08:28:53;16.00;1.00
38938;DHT22;24727;51.974;20.868;2023-04-10T08:31:22;16.30;1.00
38938;DHT22;24727;51.974;20.868;2023-04-10T08:33:51;16.80;1.00
38938;DHT22;24727;51.974;20.868;2023-04-10T08:36:17;17.20;1.00
38938;DHT22;24727;51.974;20.868;2023-04-10T08:38:44;16.90;1.00
38938;DHT22;24727;51.974;20.868;2023-04-10T08:41:12;16.90;1.00
38938;DHT22;24727;51.974;20.868;2023-04-10T08:43:39;17.50;1.00
38938;DHT22;24727;51.974;20.868;2023-04-10T08:46:05;17.80;1.00
38938;DHT22;24727;51.974;20.868;2023-04-10T08:48:38;17.60;1.00
38938;DHT22;24727;51.974;20.868;2023-04-10T08:51:09;17.30;1.00
38938;DHT22;24727;51.974;20.868;2023-04-10T08:53:40;17.70;1.00
38938;DHT22;24727;51.974;20.868;2023-04-10T08:56:11;17.80;1.00
38938;DHT22;24727;51.974;20.868;2023-04-10T08:58:41;18.30;1.00
38938;DHT22;24727;51.974;20.868;2023-04-10T09:01:09;18.40;1.00
38938;DHT22;24727;51.974;20.868;2023-04-10T09:03:38;18.10;1.00
38938;DHT22;24727;51.974;20.868;2023-04-10T09:06:05;17.90;1.00
38938;DHT22;24727;51.974;20.868;2023-04-10T09:08:35;18.50;1.00
38938;DHT22;24727;51.974;20.868;2023-04-10T09:11:04;18.90;1.00
38938;DHT22;24727;51.974;20.868;2023-04-10T09:13:45;19.40;1.00
38938;DHT22;24727;51.974;20.868;2023-04-10T09:16:12;19.30;1.00
38938;DHT22;24727;51.974;20.868;2023-04-10T09:18:48;19.70;1.00
38938;DHT22;24727;51.974;20.868;2023-04-10T09:21:20;19.50;1.00
38938;DHT22;24727;51.974;20.868;2023-04-10T09:23:48;19.80;1.00
38938;DHT22;24727;51.974;20.868;2023-04-10T09:26:31;19.00;1.00
38938;DHT22;24727;51.974;20.868;2023-04-10T09:29:05;19.90;1.00
38938;DHT22;24727;51.974;20.868;2023-04-10T09:31:37;20.30;1.00
38938;DHT22;24727;51.974;20.868;2023-04-10T09:34:17;20.50;1.00
38938;DHT22;24727;51.974;20.868;2023-04-10T09:36:56;20.60;1.00
38938;DHT22;24727;51.974;20.868;2023-04-10T09:39:52;20.90;1.00
38938;DHT22;24727;51.974;20.868;2023-04-10T09:42:33;20.30;1.00
38938;DHT22;24727;51.974;20.868;2023-04-10T09:45:00;20.90;1.00
38938;DHT22;24727;51.974;20.868;2023-04-10T09:47:27;20.40;1.00
38938;DHT22;24727;51.974;20.868;2023-04-10T09:49:55;20.70;1.00
38938;DHT22;24727;51.974;20.868;2023-04-10T09:52:34;20.90;1.00
38938;DHT22;24727;51.974;20.868;2023-04-10T09:55:16;21.10;1.00
38938;DHT22;24727;51.974;20.868;2023-04-10T09:57:43;21.60;1.00
38938;DHT22;24727;51.974;20.868;2023-04-10T10:00:10;21.20;1.00
38938;DHT22;24727;51.974;20.868;2023-04-10T10:02:39;21.40;1.00
38938;DHT22;24727;51.974;20.868;2023-04-10T10:05:06;21.50;1.00
38938;DHT22;24727;51.974;20.868;2023-04-10T10:07:33;21.50;1.00
38938;DHT22;24727;51.974;20.868;2023-04-10T10:10:02;21.70;1.00
38938;DHT22;24727;51.974;20.868;2023-04-10T10:12:38;21.90;1.00
38938;DHT22;24727;51.974;20.868;2023-04-10T10:15:31;21.70;1.00
38938;DHT22;24727;51.974;20.868;2023-04-10T10:20:36;21.60;1.00
38938;DHT22;24727;51.974;20.868;2023-04-10T10:23:06;22.10;1.00
38938;DHT22;24727;51.974;20.868;2023-04-10T10:25:35;22.20;1.00
38938;DHT22;24727;51.974;20.868;2023-04-10T10:28:03;22.40;1.00
38938;DHT22;24727;51.974;20.868;2023-04-10T10:30:34;22.30;1.00
38938;DHT22;24727;51.974;20.868;2023-04-10T10:33:05;22.70;1.00
38938;DHT22;24727;51.974;20.868;2023-04-10T10:35:36;22.70;1.00
38938;DHT22;24727;51.974;20.868;2023-04-10T10:38:06;22.70;1.00
38938;DHT22;24727;51.974;20.868;2023-04-10T10:40:50;21.60;1.00
38938;DHT22;24727;51.974;20.868;2023-04-10T10:46:02;22.60;1.00
38938;DHT22;24727;51.974;20.868;2023-04-10T10:48:30;21.70;1.00
38938;DHT22;24727;51.974;20.868;2023-04-10T10:50:58;22.40;1.00
38938;DHT22;24727;51.974;20.868;2023-04-10T10:58:48;22.10;1.00
38938;DHT22;24727;51.974;20.868;2023-04-10T11:01:15;22.80;1.00
38938;DHT22;24727;51.974;20.868;2023-04-10T11:03:42;23.50;1.00
38938;DHT22;24727;51.974;20.868;2023-04-10T11:06:14;23.00;1.00
38938;DHT22;24727;51.974;20.868;2023-04-10T11:08:49;23.20;1.00
38938;DHT22;24727;51.974;20.868;2023-04-10T11:11:18;23.20;1.00
38938;DHT22;24727;51.974;20.868;2023-04-10T11:16:39;19.30;1.00
38938;DHT22;24727;51.974;20.868;2023-04-10T11:19:10;18.90;1.00
38938;DHT22;24727;51.974;20.868;2023-04-10T11:22:12;19.60;1.00
38938;DHT22;24727;51.974;20.868;2023-04-10T11:25:06;20.60;1.00
38938;DHT22;24727;51.974;20.868;2023-04-10T11:27:43;20.20;1.00
38938;DHT22;24727;51.974;20.868;2023-04-10T11:30:28;21.40;1.00
38938;DHT22;24727;51.974;20.868;2023-04-10T11:32:56;22.10;1.00
38938;DHT22;24727;51.974;20.868;2023-04-10T11:35:25;22.70;1.00
38938;DHT22;24727;51.974;20.868;2023-04-10T11:38:07;23.00;1.00
38938;DHT22;24727;51.974;20.868;2023-04-10T11:40:33;23.60;1.00
38938;DHT22;24727;51.974;20.868;2023-04-10T11:45:41;23.60;1.00
38938;DHT22;24727;51.974;20.868;2023-04-10T11:48:08;24.10;1.00
38938;DHT22;24727;51.974;20.868;2023-04-10T11:50:35;24.10;1.00
38938;DHT22;24727;51.974;20.868;2023-04-10T11:53:01;22.00;1.00
38938;DHT22;24727;51.974;20.868;2023-04-10T11:55:38;19.90;1.00
38938;DHT22;24727;51.974;20.868;2023-04-10T11:58:04;20.20;1.00
38938;DHT22;24727;51.974;20.868;2023-04-10T12:01:01;21.30;1.00
38938;DHT22;24727;51.974;20.868;2023-04-10T12:03:39;22.30;1.00
38938;DHT22;24727;51.974;20.868;2023-04-10T12:06:14;23.30;1.00
38938;DHT22;24727;51.974;20.868;2023-04-10T12:08:44;23.30;1.00
38938;DHT22;24727;51.974;20.868;2023-04-10T12:11:20;23.00;1.00
38938;DHT22;24727;51.974;20.868;2023-04-10T12:13:51;23.70;1.00
38938;DHT22;24727;51.974;20.868;2023-04-10T12:16:18;22.90;1.00
38938;DHT22;24727;51.974;20.868;2023-04-10T12:18:45;22.90;1.00
38938;DHT22;24727;51.974;20.868;2023-04-10T12:21:11;23.20;1.00
38938;DHT22;24727;51.974;20.868;2023-04-10T12:23:39;21.30;1.00
38938;DHT22;24727;51.974;20.868;2023-04-10T12:26:13;20.40;1.00
38938;DHT22;24727;51.974;20.868;2023-04-10T12:28:41;19.80;1.00
38938;DHT22;24727;51.974;20.868;2023-04-10T12:31:08;20.80;1.00
38938;DHT22;24727;51.974;20.868;2023-04-10T12:33:36;21.60;1.00
38938;DHT22;24727;51.974;20.868;2023-04-10T12:36:02;21.90;1.00
38938;DHT22;24727;51.974;20.868;2023-04-10T12:38:41;22.70;1.00
38938;DHT22;24727;51.974;20.868;2023-04-10T12:41:08;21.40;1.00
38938;DHT22;24727;51.974;20.868;2023-04-10T12:43:38;22.40;1.00
38938;DHT22;24727;51.974;20.868;2023-04-10T12:46:05;23.60;1.00
38938;DHT22;24727;51.974;20.868;2023-04-10T12:48:32;23.20;1.00
38938;DHT22;24727;51.974;20.868;2023-04-10T12:50:59;20.20;1.00
38938;DHT22;24727;51.974;20.868;2023-04-10T12:53:26;20.30;1.00
38938;DHT22;24727;51.974;20.868;2023-04-10T12:56:04;18.80;1.00
38938;DHT22;24727;51.974;20.868;2023-04-10T12:58:32;18.70;1.00
38938;DHT22;24727;51.974;20.868;2023-04-10T13:01:03;20.10;1.00
38938;DHT22;24727;51.974;20.868;2023-04-10T13:03:35;21.10;1.00
38938;DHT22;24727;51.974;20.868;2023-04-10T13:06:04;22.10;1.00
38938;DHT22;24727;51.974;20.868;2023-04-10T13:08:31;21.40;1.00
38938;DHT22;24727;51.974;20.868;2023-04-10T13:11:02;20.10;1.00
38938;DHT22;24727;51.974;20.868;2023-04-10T13:13:31;20.10;1.00
38938;DHT22;24727;51.974;20.868;2023-04-10T13:15:58;19.80;1.00
38938;DHT22;24727;51.974;20.868;2023-04-10T13:18:25;20.60;1.00
38938;DHT22;24727;51.974;20.868;2023-04-10T13:20:51;21.60;1.00
38938;DHT22;24727;51.974;20.868;2023-04-10T13:23:17;21.00;1.00
38938;DHT22;24727;51.974;20.868;2023-04-10T13:25:43;20.10;1.00
38938;DHT22;24727;51.974;20.868;2023-04-10T13:28:09;18.90;1.00
38938;DHT22;24727;51.974;20.868;2023-04-10T13:30:40;19.20;1.00
38938;DHT22;24727;51.974;20.868;2023-04-10T13:33:08;20.30;1.00
38938;DHT22;24727;51.974;20.868;2023-04-10T13:35:34;20.30;1.00
38938;DHT22;24727;51.974;20.868;2023-04-10T13:38:00;21.20;1.00
38938;DHT22;24727;51.974;20.868;2023-04-10T13:40:26;21.50;1.00
38938;DHT22;24727;51.974;20.868;2023-04-10T13:42:52;21.90;1.00
38938;DHT22;24727;51.974;20.868;2023-04-10T13:45:20;21.90;1.00
38938;DHT22;24727;51.974;20.868;2023-04-10T13:47:46;21.30;1.00
38938;DHT22;24727;51.974;20.868;2023-04-10T13:50:12;21.10;1.00
38938;DHT22;24727;51.974;20.868;2023-04-10T13:52:38;20.40;1.00
38938;DHT22;24727;51.974;20.868;2023-04-10T13:55:05;20.30;1.00
38938;DHT22;24727;51.974;20.868;2023-04-10T13:57:31;20.10;1.00
38938;DHT22;24727;51.974;20.868;2023-04-10T13:59:59;20.20;1.00
38938;DHT22;24727;51.974;20.868;2023-04-10T14:02:25;20.50;1.00
38938;DHT22;24727;51.974;20.868;2023-04-10T14:04:51;20.60;1.00
38938;DHT22;24727;51.974;20.868;2023-04-10T14:07:18;20.20;1.00
38938;DHT22;24727;51.974;20.868;2023-04-10T14:09:44;20.40;1.00
38938;DHT22;24727;51.974;20.868;2023-04-10T14:12:13;20.60;1.00
38938;DHT22;24727;51.974;20.868;2023-04-10T14:14:44;20.60;1.00
38938;DHT22;24727;51.974;20.868;2023-04-10T14:17:12;20.50;1.00
38938;DHT22;24727;51.974;20.868;2023-04-10T14:19:38;20.50;1.00
38938;DHT22;24727;51.974;20.868;2023-04-10T14:22:05;20.70;1.00
38938;DHT22;24727;51.974;20.868;2023-04-10T14:24:31;20.70;1.00
38938;DHT22;24727;51.974;20.868;2023-04-10T14:26:58;20.80;1.00
38938;DHT22;24727;51.974;20.868;2023-04-10T14:29:26;20.80;1.00
38938;DHT22;24727;51.974;20.868;2023-04-10T14:31:53;20.90;1.00
38938;DHT22;24727;51.974;20.868;2023-04-10T14:34:19;20.80;1.00
38938;DHT22;24727;51.974;20.868;2023-04-10T14:36:46;20.70;1.00
38938;DHT22;24727;51.974;20.868;2023-04-10T14:39:11;20.00;1.00
38938;DHT22;24727;51.974;20.868;2023-04-10T14:41:38;19.90;1.00
38938;DHT22;24727;51.974;20.868;2023-04-10T14:44:04;20.00;1.00
38938;DHT22;24727;51.974;20.868;2023-04-10T14:46:30;20.20;1.00
38938;DHT22;24727;51.974;20.868;2023-04-10T14:48:56;19.80;1.00
38938;DHT22;24727;51.974;20.868;2023-04-10T14:51:23;19.10;1.00
38938;DHT22;24727;51.974;20.868;2023-04-10T14:53:49;18.80;1.00
38938;DHT22;24727;51.974;20.868;2023-04-10T14:56:16;18.90;1.00
38938;DHT22;24727;51.974;20.868;2023-04-10T14:58:42;19.00;1.00
38938;DHT22;24727;51.974;20.868;2023-04-10T15:01:11;18.60;1.00
38938;DHT22;24727;51.974;20.868;2023-04-10T15:03:38;19.00;1.00
38938;DHT22;24727;51.974;20.868;2023-04-10T15:06:05;19.00;1.00
38938;DHT22;24727;51.974;20.868;2023-04-10T15:08:31;18.30;1.00
38938;DHT22;24727;51.974;20.868;2023-04-10T15:10:58;18.40;1.00
38938;DHT22;24727;51.974;20.868;2023-04-10T15:13:24;18.00;1.00
38938;DHT22;24727;51.974;20.868;2023-04-10T15:15:51;18.30;1.00
38938;DHT22;24727;51.974;20.868;2023-04-10T15:18:17;18.40;1.00
38938;DHT22;24727;51.974;20.868;2023-04-10T15:20:43;18.10;1.00
38938;DHT22;24727;51.974;20.868;2023-04-10T15:23:10;17.70;1.00
38938;DHT22;24727;51.974;20.868;2023-04-10T15:25:36;17.80;1.00
38938;DHT22;24727;51.974;20.868;2023-04-10T15:28:03;17.90;1.00
38938;DHT22;24727;51.974;20.868;2023-04-10T15:30:30;18.10;1.00
38938;DHT22;24727;51.974;20.868;2023-04-10T15:32:56;18.30;1.00
38938;DHT22;24727;51.974;20.868;2023-04-10T15:35:23;18.30;1.00
38938;DHT22;24727;51.974;20.868;2023-04-10T15:37:51;18.30;1.00
38938;DHT22;24727;51.974;20.868;2023-04-10T15:40:18;18.30;1.00
38938;DHT22;24727;51.974;20.868;2023-04-10T15:42:45;18.20;1.00
38938;DHT22;24727;51.974;20.868;2023-04-10T15:45:11;18.00;1.00
38938;DHT22;24727;51.974;20.868;2023-04-10T15:47:38;17.90;1.00
38938;DHT22;24727;51.974;20.868;2023-04-10T15:50:04;17.90;1.00
38938;DHT22;24727;51.974;20.868;2023-04-10T15:52:31;17.80;1.00
38938;DHT22;24727;51.974;20.868;2023-04-10T15:54:59;17.80;1.00
38938;DHT22;24727;51.974;20.868;2023-04-10T15:57:25;17.80;1.00
38938;DHT22;24727;51.974;20.868;2023-04-10T15:59:52;17.90;1.00
38938;DHT22;24727;51.974;20.868;2023-04-10T16:02:19;17.70;1.00
38938;DHT22;24727;51.974;20.868;2023-04-10T16:04:45;17.70;1.00
38938;DHT22;24727;51.974;20.868;2023-04-10T16:07:11;17.60;1.00
38938;DHT22;24727;51.974;20.868;2023-04-10T16:09:38;17.50;1.00
38938;DHT22;24727;51.974;20.868;2023-04-10T16:12:04;17.40;1.00
38938;DHT22;24727;51.974;20.868;2023-04-10T16:14:31;17.40;1.00
38938;DHT22;24727;51.974;20.868;2023-04-10T16:16:57;17.30;1.00
38938;DHT22;24727;51.974;20.868;2023-04-10T16:19:24;17.20;1.00
38938;DHT22;24727;51.974;20.868;2023-04-10T16:21:50;17.10;1.00